sensor_id;sensor_type;location;lat;lon;timestamp;pressure;altitude;pressure_sealevel;temperature;humidity
45403;BME280;47427;51.976;5.326;2022-11-10T00:03:15;101582.22;;;8.90;100.00
45403;BME280;47427;51.976;5.326;2022-11-10T00:06:56;101572.50;;;8.87;100.00
45403;BME280;47427;51.976;5.326;2022-11-10T00:10:38;101579.53;;;8.88;100.00
45403;BME280;47427;51.976;5.326;2022-11-10T00:14:38;101582.22;;;8.90;100.00
45403;BME280;47427;51.976;5.326;2022-11-10T00:18:38;101594.47;;;8.91;100.00
45403;BME280;47427;51.976;5.326;2022-11-10T00:22:19;101584.97;;;8.93;100.00
45403;BME280;47427;51.976;5.326;2022-11-10T00:26:01;101596.19;;;8.90;100.00
45403;BME280;47427;51.976;5.326;2022-11-10T00:29:43;101597.50;;;8.81;100.00
45403;BME280;47427;51.976;5.326;2022-11-10T00:33:24;101602.94;;;8.85;100.00
45403;BME280;47427;51.976;5.326;2022-11-10T00:37:05;101600.44;;;8.88;100.00
45403;BME280;47427;51.976;5.326;2022-11-10T00:40:47;101595.72;;;8.80;100.00
45403;BME280;47427;51.976;5.326;2022-11-10T00:44:27;101595.97;;;8.86;100.00
45403;BME280;47427;51.976;5.326;2022-11-10T00:48:07;101608.78;;;8.80;100.00
45403;BME280;47427;51.976;5.326;2022-11-10T00:51:48;101607.81;;;8.78;100.00
45403;BME280;47427;51.976;5.326;2022-11-10T00:55:28;101628.09;;;8.82;100.00
45403;BME280;47427;51.976;5.326;2022-11-10T00:59:08;101618.38;;;8.79;100.00
45403;BME280;47427;51.976;5.326;2022-11-10T01:02:48;101624.75;;;8.86;100.00
45403;BME280;47427;51.976;5.326;2022-11-10T01:06:29;101624.28;;;8.75;100.00
45403;BME280;47427;51.976;5.326;2022-11-10T01:10:09;101636.81;;;8.82;100.00
45403;BME280;47427;51.976;5.326;2022-11-10T01:13:51;101645.22;;;8.75;100.00
45403;BME280;47427;51.976;5.326;2022-11-10T01:17:32;101634.00;;;8.78;100.00
45403;BME280;47427;51.976;5.326;2022-11-10T01:21:12;101646.84;;;8.73;100.00
45403;BME280;47427;51.976;5.326;2022-11-10T01:24:52;101651.41;;;8.77;100.00
45403;BME280;47427;51.976;5.326;2022-11-10T01:28:34;101646.09;;;8.76;100.00
45403;BME280;47427;51.976;5.326;2022-11-10T01:32:15;101646.84;;;8.73;100.00
45403;BME280;47427;51.976;5.326;2022-11-10T01:35:56;101648.53;;;8.71;100.00
45403;BME280;47427;51.976;5.326;2022-11-10T01:39:36;101651.16;;;8.71;100.00
45403;BME280;47427;51.976;5.326;2022-11-10T01:43:16;101657.03;;;8.67;100.00
45403;BME280;47427;51.976;5.326;2022-11-10T01:46:57;101653.06;;;8.75;100.00
45403;BME280;47427;51.976;5.326;2022-11-10T01:50:39;101648.44;;;8.70;100.00
45403;BME280;47427;51.976;5.326;2022-11-10T01:54:35;101655.19;;;8.64;100.00
45403;BME280;47427;51.976;5.326;2022-11-10T01:58:25;101663.47;;;8.74;100.00
45403;BME280;47427;51.976;5.326;2022-11-10T02:02:29;101652.03;;;8.72;100.00
45403;BME280;47427;51.976;5.326;2022-11-10T02:06:11;101672.75;;;8.67;100.00
45403;BME280;47427;51.976;5.326;2022-11-10T02:09:52;101676.09;;;8.64;100.00
45403;BME280;47427;51.976;5.326;2022-11-10T02:13:32;101684.31;;;8.72;100.00
45403;BME280;47427;51.976;5.326;2022-11-10T02:17:13;101688.88;;;8.76;100.00
45403;BME280;47427;51.976;5.326;2022-11-10T02:20:54;101677.34;;;8.73;100.00
45403;BME280;47427;51.976;5.326;2022-11-10T02:24:34;101693.28;;;8.77;100.00
45403;BME280;47427;51.976;5.326;2022-11-10T02:28:14;101697.69;;;8.78;100.00
45403;BME280;47427;51.976;5.326;2022-11-10T02:31:54;101701.13;;;8.77;100.00
45403;BME280;47427;51.976;5.326;2022-11-10T02:35:43;101701.00;;;8.74;100.00
45403;BME280;47427;51.976;5.326;2022-11-10T02:39:25;101711.22;;;8.70;100.00
45403;BME280;47427;51.976;5.326;2022-11-10T02:43:07;101715.06;;;8.76;100.00
45403;BME280;47427;51.976;5.326;2022-11-10T02:46:49;101707.63;;;8.67;100.00
45403;BME280;47427;51.976;5.326;2022-11-10T02:50:29;101709.38;;;8.67;100.00
45403;BME280;47427;51.976;5.326;2022-11-10T02:54:10;101710.94;;;8.63;100.00
45403;BME280;47427;51.976;5.326;2022-11-10T02:58:11;101708.25;;;8.62;100.00
45403;BME280;47427;51.976;5.326;2022-11-10T03:01:51;101720.81;;;8.69;100.00
45403;BME280;47427;51.976;5.326;2022-11-10T03:05:32;101734.50;;;8.63;100.00
45403;BME280;47427;51.976;5.326;2022-11-10T03:09:12;101738.53;;;8.57;100.00
45403;BME280;47427;51.976;5.326;2022-11-10T03:12:54;101732.91;;;8.49;100.00
45403;BME280;47427;51.976;5.326;2022-11-10T03:16:35;101738.66;;;8.60;100.00
45403;BME280;47427;51.976;5.326;2022-11-10T03:20:16;101736.94;;;8.60;100.00
45403;BME280;47427;51.976;5.326;2022-11-10T03:23:56;101742.03;;;8.57;100.00
45403;BME280;47427;51.976;5.326;2022-11-10T03:27:37;101748.53;;;8.65;100.00
45403;BME280;47427;51.976;5.326;2022-11-10T03:31:17;101753.16;;;8.53;100.00
45403;BME280;47427;51.976;5.326;2022-11-10T03:34:57;101763.63;;;8.53;100.00
45403;BME280;47427;51.976;5.326;2022-11-10T03:38:38;101762.81;;;8.54;100.00
45403;BME280;47427;51.976;5.326;2022-11-10T03:42:18;101769.59;;;8.51;100.00
45403;BME280;47427;51.976;5.326;2022-11-10T03:45:59;101767.66;;;8.46;100.00
45403;BME280;47427;51.976;5.326;2022-11-10T03:49:39;101767.56;;;8.45;100.00
45403;BME280;47427;51.976;5.326;2022-11-10T03:53:19;101776.53;;;8.50;100.00
45403;BME280;47427;51.976;5.326;2022-11-10T03:56:59;101778.13;;;8.46;100.00
45403;BME280;47427;51.976;5.326;2022-11-10T04:00:40;101798.97;;;8.45;100.00
45403;BME280;47427;51.976;5.326;2022-11-10T04:04:21;101802.59;;;8.31;100.00
45403;BME280;47427;51.976;5.326;2022-11-10T04:08:20;101814.97;;;8.35;100.00
45403;BME280;47427;51.976;5.326;2022-11-10T04:12:19;101829.13;;;8.38;100.00
45403;BME280;47427;51.976;5.326;2022-11-10T04:16:18;101836.03;;;8.38;100.00
45403;BME280;47427;51.976;5.326;2022-11-10T04:19:58;101840.75;;;8.43;100.00
45403;BME280;47427;51.976;5.326;2022-11-10T04:23:39;101837.69;;;8.52;100.00
45403;BME280;47427;51.976;5.326;2022-11-10T04:27:19;101848.06;;;8.51;100.00
45403;BME280;47427;51.976;5.326;2022-11-10T04:30:59;101857.47;;;8.47;100.00
45403;BME280;47427;51.976;5.326;2022-11-10T04:34:39;101861.50;;;8.40;100.00
45403;BME280;47427;51.976;5.326;2022-11-10T04:38:19;101874.75;;;8.43;100.00
45403;BME280;47427;51.976;5.326;2022-11-10T04:41:59;101873.97;;;8.30;100.00
45403;BME280;47427;51.976;5.326;2022-11-10T04:45:40;101876.53;;;8.28;100.00
45403;BME280;47427;51.976;5.326;2022-11-10T04:49:20;101872.94;;;8.26;100.00
45403;BME280;47427;51.976;5.326;2022-11-10T04:53:01;101878.00;;;8.23;100.00
45403;BME280;47427;51.976;5.326;2022-11-10T04:56:41;101872.38;;;8.15;100.00
45403;BME280;47427;51.976;5.326;2022-11-10T05:00:22;101874.25;;;8.18;100.00
45403;BME280;47427;51.976;5.326;2022-11-10T05:04:03;101883.97;;;8.04;100.00
45403;BME280;47427;51.976;5.326;2022-11-10T05:07:47;101888.38;;;8.05;100.00
45403;BME280;47427;51.976;5.326;2022-11-10T05:11:27;101890.97;;;8.05;100.00
45403;BME280;47427;51.976;5.326;2022-11-10T05:15:08;101905.72;;;8.03;100.00
45403;BME280;47427;51.976;5.326;2022-11-10T05:18:48;101898.91;;;8.07;100.00
45403;BME280;47427;51.976;5.326;2022-11-10T05:22:34;101900.69;;;8.08;100.00
45403;BME280;47427;51.976;5.326;2022-11-10T05:26:17;101905.94;;;8.08;100.00
45403;BME280;47427;51.976;5.326;2022-11-10T05:29:58;101908.47;;;8.06;100.00
45403;BME280;47427;51.976;5.326;2022-11-10T05:33:38;101906.28;;;8.14;100.00
45403;BME280;47427;51.976;5.326;2022-11-10T05:37:19;101908.31;;;8.03;100.00
45403;BME280;47427;51.976;5.326;2022-11-10T05:40:59;101910.75;;;8.00;100.00
45403;BME280;47427;51.976;5.326;2022-11-10T05:44:39;101906.91;;;8.10;100.00
45403;BME280;47427;51.976;5.326;2022-11-10T05:48:19;101912.88;;;8.07;100.00
45403;BME280;47427;51.976;5.326;2022-11-10T05:52:20;101915.75;;;8.12;100.00
45403;BME280;47427;51.976;5.326;2022-11-10T05:56:00;101911.84;;;8.03;100.00
45403;BME280;47427;51.976;5.326;2022-11-10T05:59:40;101917.56;;;8.13;100.00
45403;BME280;47427;51.976;5.326;2022-11-10T06:03:21;101913.72;;;8.06;100.00
45403;BME280;47427;51.976;5.326;2022-11-10T06:07:01;101929.44;;;8.08;100.00
45403;BME280;47427;51.976;5.326;2022-11-10T06:10:41;101931.03;;;8.04;100.00
45403;BME280;47427;51.976;5.326;2022-11-10T06:14:21;101940.16;;;8.12;100.00
45403;BME280;47427;51.976;5.326;2022-11-10T06:18:03;101946.94;;;8.09;100.00
45403;BME280;47427;51.976;5.326;2022-11-10T06:21:43;101949.81;;;8.13;100.00
45403;BME280;47427;51.976;5.326;2022-11-10T06:25:23;101951.59;;;8.14;100.00
45403;BME280;47427;51.976;5.326;2022-11-10T06:29:03;101963.22;;;8.19;100.00
45403;BME280;47427;51.976;5.326;2022-11-10T06:32:44;101978.31;;;8.25;100.00
45403;BME280;47427;51.976;5.326;2022-11-10T06:36:25;101983.47;;;8.23;100.00
45403;BME280;47427;51.976;5.326;2022-11-10T06:40:08;101996.31;;;8.19;100.00
45403;BME280;47427;51.976;5.326;2022-11-10T06:43:49;101998.09;;;8.20;100.00
45403;BME280;47427;51.976;5.326;2022-11-10T06:47:29;102001.22;;;8.29;100.00
45403;BME280;47427;51.976;5.326;2022-11-10T06:51:10;102015.00;;;8.27;100.00
45403;BME280;47427;51.976;5.326;2022-11-10T06:54:50;101994.25;;;8.30;100.00
45403;BME280;47427;51.976;5.326;2022-11-10T06:58:30;102012.91;;;8.36;100.00
45403;BME280;47427;51.976;5.326;2022-11-10T07:02:14;102011.75;;;8.31;100.00
45403;BME280;47427;51.976;5.326;2022-11-10T07:05:54;102029.50;;;8.36;100.00
45403;BME280;47427;51.976;5.326;2022-11-10T07:09:35;102040.25;;;8.41;100.00
45403;BME280;47427;51.976;5.326;2022-11-10T07:13:15;102052.41;;;8.57;100.00
45403;BME280;47427;51.976;5.326;2022-11-10T07:16:56;102062.31;;;8.62;100.00
45403;BME280;47427;51.976;5.326;2022-11-10T07:20:36;102064.53;;;8.71;100.00
45403;BME280;47427;51.976;5.326;2022-11-10T07:24:16;102049.94;;;8.93;100.00
45403;BME280;47427;51.976;5.326;2022-11-10T07:27:58;102060.66;;;8.97;100.00
45403;BME280;47427;51.976;5.326;2022-11-10T07:31:39;102065.56;;;9.07;100.00
45403;BME280;47427;51.976;5.326;2022-11-10T07:35:19;102066.47;;;9.26;100.00
45403;BME280;47427;51.976;5.326;2022-11-10T07:39:00;102057.47;;;9.37;100.00
45403;BME280;47427;51.976;5.326;2022-11-10T07:42:40;102062.34;;;9.47;100.00
45403;BME280;47427;51.976;5.326;2022-11-10T07:46:20;102062.16;;;9.44;100.00
45403;BME280;47427;51.976;5.326;2022-11-10T07:50:00;102069.69;;;9.54;100.00
45403;BME280;47427;51.976;5.326;2022-11-10T07:53:41;102082.97;;;9.75;100.00
45403;BME280;47427;51.976;5.326;2022-11-10T07:57:22;102090.97;;;9.96;100.00
45403;BME280;47427;51.976;5.326;2022-11-10T08:01:03;102094.72;;;10.57;100.00
45403;BME280;47427;51.976;5.326;2022-11-10T08:04:43;102091.56;;;11.03;100.00
45403;BME280;47427;51.976;5.326;2022-11-10T08:08:23;102106.88;;;12.17;99.47
45403;BME280;47427;51.976;5.326;2022-11-10T08:12:04;102106.56;;;12.09;96.08
45403;BME280;47427;51.976;5.326;2022-11-10T08:15:44;102087.31;;;13.03;92.40
45403;BME280;47427;51.976;5.326;2022-11-10T08:19:24;102089.28;;;14.13;86.88
45403;BME280;47427;51.976;5.326;2022-11-10T08:23:05;102096.94;;;15.23;81.45
45403;BME280;47427;51.976;5.326;2022-11-10T08:26:45;102112.28;;;14.44;81.82
45403;BME280;47427;51.976;5.326;2022-11-10T08:30:27;102119.53;;;13.95;82.88
45403;BME280;47427;51.976;5.326;2022-11-10T08:34:07;102114.22;;;13.68;84.54
45403;BME280;47427;51.976;5.326;2022-11-10T08:37:49;102120.13;;;13.61;85.47
45403;BME280;47427;51.976;5.326;2022-11-10T08:41:29;102127.22;;;13.89;83.27
45403;BME280;47427;51.976;5.326;2022-11-10T08:45:09;102130.56;;;13.83;83.88
45403;BME280;47427;51.976;5.326;2022-11-10T08:48:49;102147.97;;;14.32;82.93
45403;BME280;47427;51.976;5.326;2022-11-10T08:52:29;102146.00;;;14.25;82.94
45403;BME280;47427;51.976;5.326;2022-11-10T08:56:10;102149.78;;;13.54;85.24
45403;BME280;47427;51.976;5.326;2022-11-10T08:59:50;102146.88;;;13.72;85.44
45403;BME280;47427;51.976;5.326;2022-11-10T09:03:30;102159.16;;;14.80;82.04
45403;BME280;47427;51.976;5.326;2022-11-10T09:07:10;102165.38;;;16.46;74.59
45403;BME280;47427;51.976;5.326;2022-11-10T09:10:51;102163.91;;;17.91;70.05
45403;BME280;47427;51.976;5.326;2022-11-10T09:14:31;102161.66;;;18.75;64.84
45403;BME280;47427;51.976;5.326;2022-11-10T09:18:14;102161.56;;;19.41;61.56
45403;BME280;47427;51.976;5.326;2022-11-10T09:21:54;102157.84;;;20.13;59.88
45403;BME280;47427;51.976;5.326;2022-11-10T09:25:34;102157.41;;;20.85;55.20
45403;BME280;47427;51.976;5.326;2022-11-10T09:29:15;102167.50;;;21.68;53.53
45403;BME280;47427;51.976;5.326;2022-11-10T09:32:58;102159.47;;;21.94;52.17
45403;BME280;47427;51.976;5.326;2022-11-10T09:36:38;102154.13;;;22.35;51.73
45403;BME280;47427;51.976;5.326;2022-11-10T09:41:01;102162.50;;;23.65;47.77
45403;BME280;47427;51.976;5.326;2022-11-10T09:44:51;102166.75;;;23.96;48.60
45403;BME280;47427;51.976;5.326;2022-11-10T09:48:41;102181.66;;;24.30;45.28
45403;BME280;47427;51.976;5.326;2022-11-10T09:52:23;102182.72;;;24.12;44.65
45403;BME280;47427;51.976;5.326;2022-11-10T09:56:11;102189.63;;;24.39;44.42
45403;BME280;47427;51.976;5.326;2022-11-10T09:59:53;102196.38;;;26.10;43.15
45403;BME280;47427;51.976;5.326;2022-11-10T10:03:34;102209.25;;;24.44;43.92
45403;BME280;47427;51.976;5.326;2022-11-10T10:07:40;102207.94;;;24.83;43.54
45403;BME280;47427;51.976;5.326;2022-11-10T10:19:57;102226.22;;;21.64;50.88
45403;BME280;47427;51.976;5.326;2022-11-10T10:23:50;102227.16;;;22.80;47.82
45403;BME280;47427;51.976;5.326;2022-11-10T10:27:32;102239.34;;;23.59;46.22
45403;BME280;47427;51.976;5.326;2022-11-10T10:35:00;102244.53;;;19.06;57.19
45403;BME280;47427;51.976;5.326;2022-11-10T10:38:41;102253.88;;;17.32;62.20
45403;BME280;47427;51.976;5.326;2022-11-10T10:42:36;102262.50;;;16.82;65.00
45403;BME280;47427;51.976;5.326;2022-11-10T10:46:16;102252.22;;;16.60;66.79
45403;BME280;47427;51.976;5.326;2022-11-10T10:50:32;102248.38;;;16.82;66.60
45403;BME280;47427;51.976;5.326;2022-11-10T10:54:32;102247.97;;;16.66;67.99
45403;BME280;47427;51.976;5.326;2022-11-10T10:58:32;102243.91;;;16.81;67.41
45403;BME280;47427;51.976;5.326;2022-11-10T11:02:29;102248.50;;;16.88;68.59
45403;BME280;47427;51.976;5.326;2022-11-10T11:09:53;102257.78;;;17.08;66.84
45403;BME280;47427;51.976;5.326;2022-11-10T11:13:34;102275.56;;;16.75;68.36
45403;BME280;47427;51.976;5.326;2022-11-10T11:17:21;102263.00;;;16.67;68.85
45403;BME280;47427;51.976;5.326;2022-11-10T11:25:27;102265.69;;;17.05;68.63
45403;BME280;47427;51.976;5.326;2022-11-10T11:29:44;102279.59;;;16.59;69.06
45403;BME280;47427;51.976;5.326;2022-11-10T11:33:43;102295.88;;;16.76;69.33
45403;BME280;47427;51.976;5.326;2022-11-10T11:58:24;102319.00;;;18.03;66.09
45403;BME280;47427;51.976;5.326;2022-11-10T12:02:50;102317.66;;;18.23;64.59
45403;BME280;47427;51.976;5.326;2022-11-10T12:18:52;102317.25;;;18.53;62.90
45403;BME280;47427;51.976;5.326;2022-11-10T12:27:29;102311.91;;;18.02;65.17
45403;BME280;47427;51.976;5.326;2022-11-10T12:31:21;102318.53;;;18.25;64.14
45403;BME280;47427;51.976;5.326;2022-11-10T12:35:23;102312.84;;;18.04;65.12
45403;BME280;47427;51.976;5.326;2022-11-10T12:39:24;102327.84;;;18.02;64.98
45403;BME280;47427;51.976;5.326;2022-11-10T12:43:33;102339.63;;;17.72;64.74
45403;BME280;47427;51.976;5.326;2022-11-10T12:47:19;102345.59;;;17.60;65.22
45403;BME280;47427;51.976;5.326;2022-11-10T12:51:35;102335.22;;;17.72;66.51
45403;BME280;47427;51.976;5.326;2022-11-10T12:56:35;102337.50;;;17.55;66.78
45403;BME280;47427;51.976;5.326;2022-11-10T13:00:31;102335.56;;;17.89;64.91
45403;BME280;47427;51.976;5.326;2022-11-10T13:04:16;102327.19;;;17.27;66.16
45403;BME280;47427;51.976;5.326;2022-11-10T13:15:55;102337.38;;;17.90;65.48
45403;BME280;47427;51.976;5.326;2022-11-10T13:39:21;102330.06;;;19.34;60.03
45403;BME280;47427;51.976;5.326;2022-11-10T13:59:26;102330.28;;;19.51;57.31
45403;BME280;47427;51.976;5.326;2022-11-10T14:03:51;102319.84;;;18.00;60.86
45403;BME280;47427;51.976;5.326;2022-11-10T14:07:43;102312.31;;;17.35;62.95
45403;BME280;47427;51.976;5.326;2022-11-10T14:11:38;102319.41;;;16.97;64.88
45403;BME280;47427;51.976;5.326;2022-11-10T14:15:46;102306.31;;;16.68;64.95
45403;BME280;47427;51.976;5.326;2022-11-10T14:19:43;102326.59;;;16.33;66.45
45403;BME280;47427;51.976;5.326;2022-11-10T14:23:50;102338.25;;;16.06;67.76
45403;BME280;47427;51.976;5.326;2022-11-10T14:27:34;102348.38;;;15.89;68.50
45403;BME280;47427;51.976;5.326;2022-11-10T14:31:23;102359.97;;;15.64;68.97
45403;BME280;47427;51.976;5.326;2022-11-10T14:35:04;102368.53;;;15.84;68.75
45403;BME280;47427;51.976;5.326;2022-11-10T14:38:45;102351.78;;;15.56;69.69
45403;BME280;47427;51.976;5.326;2022-11-10T14:42:32;102361.44;;;15.54;69.92
45403;BME280;47427;51.976;5.326;2022-11-10T14:46:13;102364.84;;;15.50;69.91
45403;BME280;47427;51.976;5.326;2022-11-10T14:53:54;102365.09;;;16.18;68.35
45403;BME280;47427;51.976;5.326;2022-11-10T14:57:36;102365.44;;;17.38;64.13
45403;BME280;47427;51.976;5.326;2022-11-10T15:01:34;102378.19;;;16.79;65.09
45403;BME280;47427;51.976;5.326;2022-11-10T15:05:14;102379.47;;;15.96;67.57
45403;BME280;47427;51.976;5.326;2022-11-10T15:08:55;102377.47;;;15.30;70.25
45403;BME280;47427;51.976;5.326;2022-11-10T15:12:35;102362.97;;;14.90;71.69
45403;BME280;47427;51.976;5.326;2022-11-10T15:16:28;102368.91;;;14.58;72.65
45403;BME280;47427;51.976;5.326;2022-11-10T15:20:36;102370.56;;;14.30;74.29
45403;BME280;47427;51.976;5.326;2022-11-10T15:24:17;102381.31;;;14.11;75.15
45403;BME280;47427;51.976;5.326;2022-11-10T15:31:52;102384.34;;;13.73;76.79
45403;BME280;47427;51.976;5.326;2022-11-10T15:35:32;102397.13;;;13.62;77.55
45403;BME280;47427;51.976;5.326;2022-11-10T15:43:09;102412.63;;;13.32;79.05
45403;BME280;47427;51.976;5.326;2022-11-10T15:46:57;102416.03;;;13.30;79.32
45403;BME280;47427;51.976;5.326;2022-11-10T15:50:38;102420.97;;;13.22;79.79
45403;BME280;47427;51.976;5.326;2022-11-10T15:54:21;102420.59;;;13.13;80.49
45403;BME280;47427;51.976;5.326;2022-11-10T15:58:21;102406.97;;;13.02;80.56
45403;BME280;47427;51.976;5.326;2022-11-10T16:02:01;102416.44;;;12.97;80.93
45403;BME280;47427;51.976;5.326;2022-11-10T16:05:43;102415.47;;;12.95;81.14
45403;BME280;47427;51.976;5.326;2022-11-10T16:09:23;102436.34;;;12.90;81.25
45403;BME280;47427;51.976;5.326;2022-11-10T16:13:03;102423.63;;;12.80;81.50
45403;BME280;47427;51.976;5.326;2022-11-10T16:16:43;102438.75;;;12.65;82.30
45403;BME280;47427;51.976;5.326;2022-11-10T16:20:24;102434.06;;;12.57;82.28
45403;BME280;47427;51.976;5.326;2022-11-10T16:24:04;102436.22;;;12.47;82.64
45403;BME280;47427;51.976;5.326;2022-11-10T16:27:44;102437.34;;;12.32;83.13
45403;BME280;47427;51.976;5.326;2022-11-10T16:31:26;102431.53;;;12.20;83.69
45403;BME280;47427;51.976;5.326;2022-11-10T16:35:14;102444.41;;;12.14;83.83
45403;BME280;47427;51.976;5.326;2022-11-10T16:38:54;102456.34;;;12.06;84.12
45403;BME280;47427;51.976;5.326;2022-11-10T16:42:34;102474.53;;;12.01;84.50
45403;BME280;47427;51.976;5.326;2022-11-10T16:46:24;102474.72;;;11.86;85.03
45403;BME280;47427;51.976;5.326;2022-11-10T16:50:06;102464.66;;;11.78;85.50
45403;BME280;47427;51.976;5.326;2022-11-10T16:54:02;102467.81;;;11.70;85.52
45403;BME280;47427;51.976;5.326;2022-11-10T16:57:42;102474.94;;;11.73;85.83
45403;BME280;47427;51.976;5.326;2022-11-10T17:01:26;102478.75;;;11.62;85.96
45403;BME280;47427;51.976;5.326;2022-11-10T17:05:13;102486.38;;;11.56;86.25
45403;BME280;47427;51.976;5.326;2022-11-10T17:08:54;102493.38;;;11.55;85.97
45403;BME280;47427;51.976;5.326;2022-11-10T17:12:37;102484.72;;;11.40;86.50
45403;BME280;47427;51.976;5.326;2022-11-10T17:16:27;102491.25;;;11.30;87.26
45403;BME280;47427;51.976;5.326;2022-11-10T17:20:39;102510.41;;;11.27;87.66
45403;BME280;47427;51.976;5.326;2022-11-10T17:24:19;102504.00;;;11.22;87.63
45403;BME280;47427;51.976;5.326;2022-11-10T17:28:00;102503.78;;;11.18;88.19
45403;BME280;47427;51.976;5.326;2022-11-10T17:31:40;102508.28;;;11.20;88.21
45403;BME280;47427;51.976;5.326;2022-11-10T17:35:20;102517.75;;;11.17;88.21
45403;BME280;47427;51.976;5.326;2022-11-10T17:39:01;102516.63;;;11.12;88.21
45403;BME280;47427;51.976;5.326;2022-11-10T17:42:41;102512.91;;;11.08;88.88
45403;BME280;47427;51.976;5.326;2022-11-10T17:46:21;102513.59;;;11.04;89.12
45403;BME280;47427;51.976;5.326;2022-11-10T17:50:01;102525.81;;;11.03;89.38
45403;BME280;47427;51.976;5.326;2022-11-10T17:53:42;102517.63;;;10.97;89.52
45403;BME280;47427;51.976;5.326;2022-11-10T17:57:22;102521.97;;;10.97;89.61
45403;BME280;47427;51.976;5.326;2022-11-10T18:01:16;102530.50;;;10.93;90.16
45403;BME280;47427;51.976;5.326;2022-11-10T18:04:57;102519.91;;;10.91;90.30
45403;BME280;47427;51.976;5.326;2022-11-10T18:08:37;102509.09;;;10.85;90.57
45403;BME280;47427;51.976;5.326;2022-11-10T18:12:18;102518.16;;;10.74;91.18
45403;BME280;47427;51.976;5.326;2022-11-10T18:15:58;102513.66;;;10.71;91.77
45403;BME280;47427;51.976;5.326;2022-11-10T18:19:39;102516.84;;;10.66;92.37
45403;BME280;47427;51.976;5.326;2022-11-10T18:23:19;102519.81;;;10.72;92.13
45403;BME280;47427;51.976;5.326;2022-11-10T18:26:59;102513.81;;;10.74;92.55
45403;BME280;47427;51.976;5.326;2022-11-10T18:30:40;102527.19;;;10.79;92.41
45403;BME280;47427;51.976;5.326;2022-11-10T18:34:21;102520.53;;;10.69;93.01
45403;BME280;47427;51.976;5.326;2022-11-10T18:38:01;102520.69;;;10.72;93.01
45403;BME280;47427;51.976;5.326;2022-11-10T18:41:41;102510.84;;;10.84;92.82
45403;BME280;47427;51.976;5.326;2022-11-10T18:45:28;102518.38;;;10.78;92.97
45403;BME280;47427;51.976;5.326;2022-11-10T18:49:08;102519.81;;;10.72;93.54
45403;BME280;47427;51.976;5.326;2022-11-10T18:52:48;102509.16;;;10.69;93.59
45403;BME280;47427;51.976;5.326;2022-11-10T18:56:29;102519.56;;;10.67;93.40
45403;BME280;47427;51.976;5.326;2022-11-10T19:00:11;102527.19;;;10.62;93.50
45403;BME280;47427;51.976;5.326;2022-11-10T19:03:51;102513.41;;;10.50;93.75
45403;BME280;47427;51.976;5.326;2022-11-10T19:07:31;102526.88;;;10.56;94.32
45403;BME280;47427;51.976;5.326;2022-11-10T19:11:14;102527.22;;;10.46;94.22
45403;BME280;47427;51.976;5.326;2022-11-10T19:14:54;102534.81;;;10.41;94.56
45403;BME280;47427;51.976;5.326;2022-11-10T19:18:36;102538.34;;;10.42;94.48
45403;BME280;47427;51.976;5.326;2022-11-10T19:22:20;102545.69;;;10.33;94.36
45403;BME280;47427;51.976;5.326;2022-11-10T19:26:07;102560.97;;;10.40;94.93
45403;BME280;47427;51.976;5.326;2022-11-10T19:29:49;102544.31;;;10.39;94.75
45403;BME280;47427;51.976;5.326;2022-11-10T19:33:31;102547.38;;;10.31;94.63
45403;BME280;47427;51.976;5.326;2022-11-10T19:37:11;102556.03;;;10.30;95.35
45403;BME280;47427;51.976;5.326;2022-11-10T19:40:51;102551.31;;;10.24;95.34
45403;BME280;47427;51.976;5.326;2022-11-10T19:44:32;102569.78;;;10.26;96.30
45403;BME280;47427;51.976;5.326;2022-11-10T19:48:12;102564.66;;;10.12;96.73
45403;BME280;47427;51.976;5.326;2022-11-10T19:51:52;102580.41;;;10.12;96.82
45403;BME280;47427;51.976;5.326;2022-11-10T19:55:32;102585.94;;;10.02;97.73
45403;BME280;47427;51.976;5.326;2022-11-10T19:59:13;102596.38;;;10.01;98.09
45403;BME280;47427;51.976;5.326;2022-11-10T20:02:53;102574.72;;;10.05;97.95
45403;BME280;47427;51.976;5.326;2022-11-10T20:06:33;102583.06;;;9.97;98.34
45403;BME280;47427;51.976;5.326;2022-11-10T20:10:13;102574.03;;;9.92;99.23
45403;BME280;47427;51.976;5.326;2022-11-10T20:13:56;102575.19;;;9.97;98.80
45403;BME280;47427;51.976;5.326;2022-11-10T20:17:39;102567.41;;;9.99;99.32
45403;BME280;47427;51.976;5.326;2022-11-10T20:21:20;102577.81;;;9.97;99.62
45403;BME280;47427;51.976;5.326;2022-11-10T20:25:03;102568.88;;;9.94;99.62
45403;BME280;47427;51.976;5.326;2022-11-10T20:28:43;102583.16;;;9.99;100.00
45403;BME280;47427;51.976;5.326;2022-11-10T20:32:24;102581.38;;;9.98;99.84
45403;BME280;47427;51.976;5.326;2022-11-10T20:36:11;102576.66;;;9.92;100.00
45403;BME280;47427;51.976;5.326;2022-11-10T20:39:52;102577.19;;;10.02;100.00
45403;BME280;47427;51.976;5.326;2022-11-10T20:43:34;102573.28;;;9.95;100.00
45403;BME280;47427;51.976;5.326;2022-11-10T20:47:15;102577.59;;;9.93;100.00
45403;BME280;47427;51.976;5.326;2022-11-10T20:50:55;102586.25;;;9.92;100.00
45403;BME280;47427;51.976;5.326;2022-11-10T20:54:36;102585.06;;;9.87;100.00
45403;BME280;47427;51.976;5.326;2022-11-10T20:58:16;102588.53;;;9.86;100.00
45403;BME280;47427;51.976;5.326;2022-11-10T21:02:16;102592.78;;;9.84;100.00
45403;BME280;47427;51.976;5.326;2022-11-10T21:05:57;102594.34;;;9.80;100.00
45403;BME280;47427;51.976;5.326;2022-11-10T21:09:37;102600.31;;;9.77;100.00
45403;BME280;47427;51.976;5.326;2022-11-10T21:13:18;102609.78;;;9.75;100.00
45403;BME280;47427;51.976;5.326;2022-11-10T21:16:58;102600.31;;;9.77;100.00
45403;BME280;47427;51.976;5.326;2022-11-10T21:20:38;102601.81;;;9.74;100.00
45403;BME280;47427;51.976;5.326;2022-11-10T21:24:19;102612.31;;;9.74;100.00
45403;BME280;47427;51.976;5.326;2022-11-10T21:28:01;102606.06;;;9.72;100.00